sensor_id;sensor_type;location;lat;lon;timestamp;pressure;altitude;pressure_sealevel;temperature;humidity
26436;BME280;15351;52.408;16.826;2023-02-18T00:00:28;100288.98;;;8.99;64.63
26436;BME280;15351;52.408;16.826;2023-02-18T00:03:16;100293.84;;;9.03;65.13
26436;BME280;15351;52.408;16.826;2023-02-18T00:05:56;100295.78;;;9.05;65.22
26436;BME280;15351;52.408;16.826;2023-02-18T00:08:44;100302.15;;;9.03;64.74
26436;BME280;15351;52.408;16.826;2023-02-18T00:11:14;100301.19;;;9.01;64.80
26436;BME280;15351;52.408;16.826;2023-02-18T00:13:52;100303.13;;;8.99;64.57
26436;BME280;15351;52.408;16.826;2023-02-18T00:16:26;100304.31;;;8.98;64.52
26436;BME280;15351;52.408;16.826;2023-02-18T00:19:00;100318.74;;;8.96;64.49
26436;BME280;15351;52.408;16.826;2023-02-18T00:21:35;100316.66;;;8.95;64.32
26436;BME280;15351;52.408;16.826;2023-02-18T00:24:06;100315.27;;;8.90;64.26
26436;BME280;15351;52.408;16.826;2023-02-18T00:26:50;100313.98;;;8.84;64.07
26436;BME280;15351;52.408;16.826;2023-02-18T00:29:20;100313.83;;;8.79;64.43
26436;BME280;15351;52.408;16.826;2023-02-18T00:31:56;100318.13;;;8.78;64.31
26436;BME280;15351;52.408;16.826;2023-02-18T00:34:45;100305.41;;;8.71;64.21
26436;BME280;15351;52.408;16.826;2023-02-18T00:37:40;100301.81;;;8.66;64.34
26436;BME280;15351;52.408;16.826;2023-02-18T00:40:11;100314.12;;;8.62;64.62
26436;BME280;15351;52.408;16.826;2023-02-18T00:43:09;100314.01;;;8.60;64.68
26436;BME280;15351;52.408;16.826;2023-02-18T00:45:38;100320.90;;;8.63;64.76
26436;BME280;15351;52.408;16.826;2023-02-18T00:48:05;100317.95;;;8.62;64.76
26436;BME280;15351;52.408;16.826;2023-02-18T00:50:32;100323.46;;;8.62;65.01
26436;BME280;15351;52.408;16.826;2023-02-18T00:53:00;100323.16;;;8.63;65.07
26436;BME280;15351;52.408;16.826;2023-02-18T00:55:31;100326.11;;;8.64;64.90
26436;BME280;15351;52.408;16.826;2023-02-18T00:58:26;100332.58;;;8.59;64.85
26436;BME280;15351;52.408;16.826;2023-02-18T01:00:58;100337.16;;;8.60;64.82
26436;BME280;15351;52.408;16.826;2023-02-18T01:03:30;100338.66;;;8.59;64.92
26436;BME280;15351;52.408;16.826;2023-02-18T01:05:58;100342.02;;;8.57;65.17
26436;BME280;15351;52.408;16.826;2023-02-18T01:08:36;100345.51;;;8.56;65.01
26436;BME280;15351;52.408;16.826;2023-02-18T01:11:04;100342.35;;;8.55;65.05
26436;BME280;15351;52.408;16.826;2023-02-18T01:13:35;100349.73;;;8.53;64.97
26436;BME280;15351;52.408;16.826;2023-02-18T01:16:22;100355.63;;;8.51;64.86
26436;BME280;15351;52.408;16.826;2023-02-18T01:18:54;100356.92;;;8.48;64.88
26436;BME280;15351;52.408;16.826;2023-02-18T01:21:51;100360.05;;;8.46;64.85
26436;BME280;15351;52.408;16.826;2023-02-18T01:24:20;100348.23;;;8.44;64.92
26436;BME280;15351;52.408;16.826;2023-02-18T01:26:52;100344.56;;;8.40;64.79
26436;BME280;15351;52.408;16.826;2023-02-18T01:29:39;100343.14;;;8.35;64.96
26436;BME280;15351;52.408;16.826;2023-02-18T01:32:09;100344.80;;;8.35;65.48
26436;BME280;15351;52.408;16.826;2023-02-18T01:34:38;100349.54;;;8.39;65.34
26436;BME280;15351;52.408;16.826;2023-02-18T01:37:08;100348.02;;;8.43;65.07
26436;BME280;15351;52.408;16.826;2023-02-18T01:39:38;100354.16;;;8.39;64.89
26436;BME280;15351;52.408;16.826;2023-02-18T01:42:18;100352.22;;;8.36;64.96
26436;BME280;15351;52.408;16.826;2023-02-18T01:44:51;100349.52;;;8.31;65.04
26436;BME280;15351;52.408;16.826;2023-02-18T01:47:20;100346.56;;;8.25;64.99
26436;BME280;15351;52.408;16.826;2023-02-18T01:49:55;100340.58;;;8.20;65.27
26436;BME280;15351;52.408;16.826;2023-02-18T01:52:27;100338.63;;;8.15;65.37
26436;BME280;15351;52.408;16.826;2023-02-18T01:55:04;100335.70;;;8.15;65.67
26436;BME280;15351;52.408;16.826;2023-02-18T01:57:35;100332.17;;;8.16;65.62
26436;BME280;15351;52.408;16.826;2023-02-18T02:00:43;100335.10;;;8.16;65.43
26436;BME280;15351;52.408;16.826;2023-02-18T02:03:18;100336.44;;;8.12;65.51
26436;BME280;15351;52.408;16.826;2023-02-18T02:06:18;100333.70;;;8.09;65.45
26436;BME280;15351;52.408;16.826;2023-02-18T02:08:59;100328.97;;;8.03;65.59
26436;BME280;15351;52.408;16.826;2023-02-18T02:15:22;100323.24;;;7.95;66.00
26436;BME280;15351;52.408;16.826;2023-02-18T02:29:55;100327.92;;;7.81;66.19
26436;BME280;15351;52.408;16.826;2023-02-18T02:35:48;100330.15;;;7.79;66.72
26436;BME280;15351;52.408;16.826;2023-02-18T02:38:52;100333.14;;;7.81;66.41
26436;BME280;15351;52.408;16.826;2023-02-18T02:41:54;100334.67;;;7.82;66.44
26436;BME280;15351;52.408;16.826;2023-02-18T02:44:44;100339.09;;;7.84;66.58
26436;BME280;15351;52.408;16.826;2023-02-18T02:53:03;100353.02;;;7.88;66.77
26436;BME280;15351;52.408;16.826;2023-02-18T02:55:33;100353.17;;;7.90;66.58
26436;BME280;15351;52.408;16.826;2023-02-18T02:58:03;100358.14;;;7.90;66.46
26436;BME280;15351;52.408;16.826;2023-02-18T03:00:49;100357.61;;;7.92;66.70
26436;BME280;15351;52.408;16.826;2023-02-18T03:03:52;100355.83;;;7.92;66.62
26436;BME280;15351;52.408;16.826;2023-02-18T03:09:36;100368.88;;;7.97;66.48
26436;BME280;15351;52.408;16.826;2023-02-18T03:15:10;100367.95;;;7.95;66.31
26436;BME280;15351;52.408;16.826;2023-02-18T03:18:09;100366.28;;;7.96;66.16
26436;BME280;15351;52.408;16.826;2023-02-18T03:20:57;100370.67;;;7.95;66.15
26436;BME280;15351;52.408;16.826;2023-02-18T03:23:58;100375.23;;;7.93;66.39
26436;BME280;15351;52.408;16.826;2023-02-18T03:26:32;100380.86;;;7.90;66.43
26436;BME280;15351;52.408;16.826;2023-02-18T03:29:06;100386.59;;;7.93;66.38
26436;BME280;15351;52.408;16.826;2023-02-18T03:31:36;100389.40;;;7.94;66.20
26436;BME280;15351;52.408;16.826;2023-02-18T03:34:36;100387.42;;;7.94;66.25
26436;BME280;15351;52.408;16.826;2023-02-18T03:37:09;100392.66;;;7.95;66.00
26436;BME280;15351;52.408;16.826;2023-02-18T03:40:15;100393.09;;;7.93;66.24
26436;BME280;15351;52.408;16.826;2023-02-18T03:42:44;100398.70;;;7.91;65.95
26436;BME280;15351;52.408;16.826;2023-02-18T03:45:18;100401.05;;;7.91;66.17
26436;BME280;15351;52.408;16.826;2023-02-18T03:47:46;100403.66;;;7.91;65.93
26436;BME280;15351;52.408;16.826;2023-02-18T03:50:25;100398.29;;;7.91;65.96
26436;BME280;15351;52.408;16.826;2023-02-18T03:52:53;100404.64;;;7.94;66.12
26436;BME280;15351;52.408;16.826;2023-02-18T03:55:35;100404.44;;;7.97;66.03
26436;BME280;15351;52.408;16.826;2023-02-18T03:58:34;100403.41;;;7.97;66.07
26436;BME280;15351;52.408;16.826;2023-02-18T04:01:21;100406.48;;;8.00;66.11
26436;BME280;15351;52.408;16.826;2023-02-18T04:03:56;100405.27;;;8.01;65.77
26436;BME280;15351;52.408;16.826;2023-02-18T04:06:24;100402.21;;;8.00;65.67
26436;BME280;15351;52.408;16.826;2023-02-18T04:08:52;100407.41;;;8.00;65.53
26436;BME280;15351;52.408;16.826;2023-02-18T04:11:41;100406.60;;;7.99;65.33
26436;BME280;15351;52.408;16.826;2023-02-18T04:14:09;100411.80;;;7.99;65.38
26436;BME280;15351;52.408;16.826;2023-02-18T04:16:44;100409.98;;;7.99;65.39
26436;BME280;15351;52.408;16.826;2023-02-18T04:19:13;100409.94;;;7.99;65.53
26436;BME280;15351;52.408;16.826;2023-02-18T04:21:41;100414.75;;;7.98;65.63
26436;BME280;15351;52.408;16.826;2023-02-18T04:24:25;100417.44;;;7.98;65.43
26436;BME280;15351;52.408;16.826;2023-02-18T04:26:53;100415.30;;;7.98;65.27
26436;BME280;15351;52.408;16.826;2023-02-18T04:29:47;100414.11;;;7.97;65.10
26436;BME280;15351;52.408;16.826;2023-02-18T04:32:27;100412.35;;;7.91;65.04
26436;BME280;15351;52.408;16.826;2023-02-18T04:34:57;100412.18;;;7.89;65.27
26436;BME280;15351;52.408;16.826;2023-02-18T04:37:38;100419.53;;;7.89;65.23
26436;BME280;15351;52.408;16.826;2023-02-18T04:40:09;100421.09;;;7.86;65.37
26436;BME280;15351;52.408;16.826;2023-02-18T04:42:38;100425.42;;;7.86;65.56
26436;BME280;15351;52.408;16.826;2023-02-18T04:45:21;100418.71;;;7.86;65.51
26436;BME280;15351;52.408;16.826;2023-02-18T04:47:48;100425.15;;;7.85;65.35
26436;BME280;15351;52.408;16.826;2023-02-18T04:50:19;100419.17;;;7.84;65.32
26436;BME280;15351;52.408;16.826;2023-02-18T04:53:06;100420.32;;;7.85;65.27
26436;BME280;15351;52.408;16.826;2023-02-18T04:55:37;100428.13;;;7.84;65.05
26436;BME280;15351;52.408;16.826;2023-02-18T04:58:05;100426.85;;;7.80;65.07
26436;BME280;15351;52.408;16.826;2023-02-18T05:00:35;100430.03;;;7.79;65.30
26436;BME280;15351;52.408;16.826;2023-02-18T05:03:03;100435.52;;;7.76;65.53
26436;BME280;15351;52.408;16.826;2023-02-18T05:05:32;100435.41;;;7.74;65.42
26436;BME280;15351;52.408;16.826;2023-02-18T05:08:40;100441.05;;;7.70;65.37
26436;BME280;15351;52.408;16.826;2023-02-18T05:11:10;100446.32;;;7.70;65.54
26436;BME280;15351;52.408;16.826;2023-02-18T05:13:57;100452.11;;;7.72;65.65
26436;BME280;15351;52.408;16.826;2023-02-18T05:16:33;100453.83;;;7.72;65.57
26436;BME280;15351;52.408;16.826;2023-02-18T05:19:01;100458.58;;;7.71;65.64
26436;BME280;15351;52.408;16.826;2023-02-18T05:21:29;100460.13;;;7.72;65.88
26436;BME280;15351;52.408;16.826;2023-02-18T05:23:58;100468.34;;;7.71;65.80
26436;BME280;15351;52.408;16.826;2023-02-18T05:26:53;100477.77;;;7.73;65.93
26436;BME280;15351;52.408;16.826;2023-02-18T05:29:30;100479.70;;;7.75;65.77
26436;BME280;15351;52.408;16.826;2023-02-18T05:31:57;100489.13;;;7.77;65.65
26436;BME280;15351;52.408;16.826;2023-02-18T05:34:31;100480.16;;;7.77;65.64
26436;BME280;15351;52.408;16.826;2023-02-18T05:37:02;100473.99;;;7.79;65.57
26436;BME280;15351;52.408;16.826;2023-02-18T05:39:29;100478.80;;;7.80;65.76
26436;BME280;15351;52.408;16.826;2023-02-18T05:41:55;100478.88;;;7.77;65.83
26436;BME280;15351;52.408;16.826;2023-02-18T05:44:34;100487.39;;;7.75;65.52
26436;BME280;15351;52.408;16.826;2023-02-18T05:47:10;100490.39;;;7.71;65.53
26436;BME280;15351;52.408;16.826;2023-02-18T05:50:18;100496.63;;;7.71;65.54
26436;BME280;15351;52.408;16.826;2023-02-18T05:52:48;100488.52;;;7.68;65.44
26436;BME280;15351;52.408;16.826;2023-02-18T05:55:40;100484.80;;;7.62;65.34
26436;BME280;15351;52.408;16.826;2023-02-18T05:58:09;100494.77;;;7.56;65.55
26436;BME280;15351;52.408;16.826;2023-02-18T06:00:43;100499.92;;;7.55;65.79
26436;BME280;15351;52.408;16.826;2023-02-18T06:03:21;100500.66;;;7.55;66.01
26436;BME280;15351;52.408;16.826;2023-02-18T06:05:53;100498.85;;;7.55;65.90
26436;BME280;15351;52.408;16.826;2023-02-18T06:08:24;100497.22;;;7.57;65.85
26436;BME280;15351;52.408;16.826;2023-02-18T06:10:53;100498.86;;;7.56;65.81
26436;BME280;15351;52.408;16.826;2023-02-18T06:13:27;100499.39;;;7.55;65.88
26436;BME280;15351;52.408;16.826;2023-02-18T06:16:23;100495.77;;;7.49;65.81
26436;BME280;15351;52.408;16.826;2023-02-18T06:18:50;100506.06;;;7.46;66.39
26436;BME280;15351;52.408;16.826;2023-02-18T06:21:20;100507.03;;;7.50;66.56
26436;BME280;15351;52.408;16.826;2023-02-18T06:23:58;100512.44;;;7.55;66.55
26436;BME280;15351;52.408;16.826;2023-02-18T06:26:27;100518.73;;;7.58;66.45
26436;BME280;15351;52.408;16.826;2023-02-18T06:29:16;100526.38;;;7.58;66.48
26436;BME280;15351;52.408;16.826;2023-02-18T06:32:04;100525.92;;;7.59;66.55
26436;BME280;15351;52.408;16.826;2023-02-18T06:34:33;100527.45;;;7.62;66.72
26436;BME280;15351;52.408;16.826;2023-02-18T06:37:08;100528.42;;;7.63;66.63
26436;BME280;15351;52.408;16.826;2023-02-18T06:39:38;100528.64;;;7.59;66.55
26436;BME280;15351;52.408;16.826;2023-02-18T06:42:08;100529.33;;;7.57;66.55
26436;BME280;15351;52.408;16.826;2023-02-18T06:44:38;100527.73;;;7.59;66.70
26436;BME280;15351;52.408;16.826;2023-02-18T06:47:07;100525.31;;;7.58;66.81
26436;BME280;15351;52.408;16.826;2023-02-18T06:49:54;100530.05;;;7.59;67.00
26436;BME280;15351;52.408;16.826;2023-02-18T06:52:22;100535.87;;;7.65;67.04
26436;BME280;15351;52.408;16.826;2023-02-18T06:54:50;100536.29;;;7.73;67.04
26436;BME280;15351;52.408;16.826;2023-02-18T06:57:18;100542.77;;;7.79;66.84
26436;BME280;15351;52.408;16.826;2023-02-18T06:59:49;100540.27;;;7.81;66.53
26436;BME280;15351;52.408;16.826;2023-02-18T07:02:20;100544.20;;;7.83;66.52
26436;BME280;15351;52.408;16.826;2023-02-18T07:04:47;100544.48;;;7.84;66.69
26436;BME280;15351;52.408;16.826;2023-02-18T07:07:16;100547.23;;;7.85;66.70
26436;BME280;15351;52.408;16.826;2023-02-18T07:10:05;100545.63;;;7.86;66.57
26436;BME280;15351;52.408;16.826;2023-02-18T07:12:45;100546.63;;;7.85;66.55
26436;BME280;15351;52.408;16.826;2023-02-18T07:15:20;100547.72;;;7.82;66.34
26436;BME280;15351;52.408;16.826;2023-02-18T07:17:50;100542.27;;;7.75;66.23
26436;BME280;15351;52.408;16.826;2023-02-18T07:20:42;100540.13;;;7.75;66.39
26436;BME280;15351;52.408;16.826;2023-02-18T07:23:11;100537.05;;;7.78;66.55
26436;BME280;15351;52.408;16.826;2023-02-18T07:25:40;100542.51;;;7.80;66.76
26436;BME280;15351;52.408;16.826;2023-02-18T07:28:10;100546.52;;;7.85;66.54
26436;BME280;15351;52.408;16.826;2023-02-18T07:30:47;100550.17;;;7.89;66.41
26436;BME280;15351;52.408;16.826;2023-02-18T07:33:18;100540.31;;;7.89;66.37
26436;BME280;15351;52.408;16.826;2023-02-18T07:35:56;100538.85;;;7.93;66.40
26436;BME280;15351;52.408;16.826;2023-02-18T07:38:42;100532.19;;;7.95;66.23
26436;BME280;15351;52.408;16.826;2023-02-18T07:41:19;100533.96;;;7.95;66.27
26436;BME280;15351;52.408;16.826;2023-02-18T07:43:48;100537.73;;;7.96;66.33
26436;BME280;15351;52.408;16.826;2023-02-18T07:46:26;100534.23;;;7.97;65.99
26436;BME280;15351;52.408;16.826;2023-02-18T07:49:01;100530.78;;;7.96;65.80
26436;BME280;15351;52.408;16.826;2023-02-18T07:51:33;100533.80;;;7.96;65.86
26436;BME280;15351;52.408;16.826;2023-02-18T07:54:23;100534.91;;;7.96;65.62
26436;BME280;15351;52.408;16.826;2023-02-18T07:56:56;100537.52;;;7.97;65.57
26436;BME280;15351;52.408;16.826;2023-02-18T08:00:00;100541.06;;;8.01;65.77
26436;BME280;15351;52.408;16.826;2023-02-18T08:02:40;100536.63;;;8.04;65.76
26436;BME280;15351;52.408;16.826;2023-02-18T08:05:14;100541.27;;;8.11;65.66
26436;BME280;15351;52.408;16.826;2023-02-18T08:07:43;100541.63;;;8.16;65.41
26436;BME280;15351;52.408;16.826;2023-02-18T08:10:16;100538.59;;;8.20;65.17
26436;BME280;15351;52.408;16.826;2023-02-18T08:13:02;100535.66;;;8.29;65.39
26436;BME280;15351;52.408;16.826;2023-02-18T08:15:39;100527.58;;;8.43;65.31
26436;BME280;15351;52.408;16.826;2023-02-18T08:18:24;100521.21;;;8.75;65.18
26436;BME280;15351;52.408;16.826;2023-02-18T08:21:17;100521.01;;;9.24;64.64
26436;BME280;15351;52.408;16.826;2023-02-18T08:24:11;100518.48;;;10.13;63.26
26436;BME280;15351;52.408;16.826;2023-02-18T08:26:38;100510.77;;;11.00;61.57
26436;BME280;15351;52.408;16.826;2023-02-18T08:29:09;100513.34;;;11.55;60.33
26436;BME280;15351;52.408;16.826;2023-02-18T08:31:40;100512.70;;;11.78;59.11
26436;BME280;15351;52.408;16.826;2023-02-18T08:34:38;100512.77;;;11.53;58.07
26436;BME280;15351;52.408;16.826;2023-02-18T08:37:09;100516.13;;;11.06;57.61
26436;BME280;15351;52.408;16.826;2023-02-18T08:40:01;100517.26;;;10.65;58.17
26436;BME280;15351;52.408;16.826;2023-02-18T08:42:30;100522.87;;;10.31;58.12
26436;BME280;15351;52.408;16.826;2023-02-18T08:44:59;100522.79;;;10.02;58.79
26436;BME280;15351;52.408;16.826;2023-02-18T08:47:28;100526.80;;;9.97;59.34
26436;BME280;15351;52.408;16.826;2023-02-18T08:50:24;100522.39;;;9.92;59.50
26436;BME280;15351;52.408;16.826;2023-02-18T08:52:56;100521.83;;;9.76;59.68
26436;BME280;15351;52.408;16.826;2023-02-18T08:55:33;100518.90;;;9.72;60.14
26436;BME280;15351;52.408;16.826;2023-02-18T08:58:06;100518.99;;;9.74;59.80
26436;BME280;15351;52.408;16.826;2023-02-18T09:00:38;100510.09;;;9.63;60.10
26436;BME280;15351;52.408;16.826;2023-02-18T09:03:09;100510.88;;;9.62;60.49
26436;BME280;15351;52.408;16.826;2023-02-18T09:05:38;100509.41;;;9.66;60.61
26436;BME280;15351;52.408;16.826;2023-02-18T09:08:11;100507.93;;;9.66;60.36
26436;BME280;15351;52.408;16.826;2023-02-18T09:11:01;100510.20;;;9.57;59.91
26436;BME280;15351;52.408;16.826;2023-02-18T09:13:37;100507.23;;;9.46;59.95
26436;BME280;15351;52.408;16.826;2023-02-18T09:16:34;100509.04;;;9.42;60.22
26436;BME280;15351;52.408;16.826;2023-02-18T09:19:05;100509.45;;;9.45;60.12
26436;BME280;15351;52.408;16.826;2023-02-18T09:21:41;100509.14;;;9.49;60.16
26436;BME280;15351;52.408;16.826;2023-02-18T09:24:13;100506.45;;;9.57;60.37
26436;BME280;15351;52.408;16.826;2023-02-18T09:27:13;100505.42;;;9.56;59.70
26436;BME280;15351;52.408;16.826;2023-02-18T09:30:17;100499.60;;;9.57;59.86
26436;BME280;15351;52.408;16.826;2023-02-18T09:33:12;100496.06;;;9.58;59.77
26436;BME280;15351;52.408;16.826;2023-02-18T09:35:47;100488.55;;;9.59;59.67
26436;BME280;15351;52.408;16.826;2023-02-18T09:38:21;100485.02;;;9.62;59.45
26436;BME280;15351;52.408;16.826;2023-02-18T09:40:54;100485.52;;;9.74;59.46
26436;BME280;15351;52.408;16.826;2023-02-18T09:43:47;100483.36;;;9.87;59.06
26436;BME280;15351;52.408;16.826;2023-02-18T09:46:27;100482.36;;;10.06;59.07
26436;BME280;15351;52.408;16.826;2023-02-18T09:49:32;100473.36;;;10.21;58.58
26436;BME280;15351;52.408;16.826;2023-02-18T09:52:19;100476.20;;;10.34;58.37
26436;BME280;15351;52.408;16.826;2023-02-18T09:54:51;100472.92;;;10.33;57.48
26436;BME280;15351;52.408;16.826;2023-02-18T09:58:32;100469.14;;;10.30;57.69
26436;BME280;15351;52.408;16.826;2023-02-18T10:04:43;100460.42;;;10.68;56.92
26436;BME280;15351;52.408;16.826;2023-02-18T10:07:25;100453.64;;;10.89;56.40
26436;BME280;15351;52.408;16.826;2023-02-18T10:09:56;100453.82;;;10.96;55.43
26436;BME280;15351;52.408;16.826;2023-02-18T10:12:29;100445.41;;;10.97;54.94
26436;BME280;15351;52.408;16.826;2023-02-18T10:15:20;100448.04;;;11.05;54.71
26436;BME280;15351;52.408;16.826;2023-02-18T10:17:58;100452.15;;;11.05;54.09
26436;BME280;15351;52.408;16.826;2023-02-18T10:20:34;100444.42;;;11.05;54.26
26436;BME280;15351;52.408;16.826;2023-02-18T10:23:09;100435.49;;;11.11;53.78
26436;BME280;15351;52.408;16.826;2023-02-18T10:25:52;100429.17;;;11.17;53.95
26436;BME280;15351;52.408;16.826;2023-02-18T10:28:26;100427.89;;;11.29;54.06
26436;BME280;15351;52.408;16.826;2023-02-18T10:30:59;100419.54;;;11.53;54.08
26436;BME280;15351;52.408;16.826;2023-02-18T10:33:50;100406.95;;;11.83;53.74
26436;BME280;15351;52.408;16.826;2023-02-18T10:37:01;100396.48;;;11.93;52.69
26436;BME280;15351;52.408;16.826;2023-02-18T10:43:22;100384.48;;;11.81;51.27
26436;BME280;15351;52.408;16.826;2023-02-18T10:52:51;100362.46;;;11.86;51.78
26436;BME280;15351;52.408;16.826;2023-02-18T10:55:41;100356.23;;;12.05;52.04
26436;BME280;15351;52.408;16.826;2023-02-18T10:58:45;100356.86;;;12.37;51.50
26436;BME280;15351;52.408;16.826;2023-02-18T11:01:20;100356.29;;;12.49;50.83
26436;BME280;15351;52.408;16.826;2023-02-18T11:04:06;100348.27;;;12.55;50.95
26436;BME280;15351;52.408;16.826;2023-02-18T11:06:44;100351.21;;;12.59;50.63
26436;BME280;15351;52.408;16.826;2023-02-18T11:09:39;100349.28;;;12.61;50.40
26436;BME280;15351;52.408;16.826;2023-02-18T11:12:17;100340.58;;;12.60;50.10
26436;BME280;15351;52.408;16.826;2023-02-18T11:17:31;100334.42;;;12.52;50.21
26436;BME280;15351;52.408;16.826;2023-02-18T11:20:33;100329.58;;;12.55;50.68
26436;BME280;15351;52.408;16.826;2023-02-18T11:23:20;100324.65;;;12.45;50.15
26436;BME280;15351;52.408;16.826;2023-02-18T11:31:23;100303.48;;;11.85;51.01
26436;BME280;15351;52.408;16.826;2023-02-18T11:33:58;100297.98;;;11.73;51.44
26436;BME280;15351;52.408;16.826;2023-02-18T11:36:33;100295.64;;;11.60;51.80
26436;BME280;15351;52.408;16.826;2023-02-18T11:41:41;100278.23;;;11.54;51.98
26436;BME280;15351;52.408;16.826;2023-02-18T11:44:31;100267.23;;;11.45;52.25
26436;BME280;15351;52.408;16.826;2023-02-18T11:47:03;100266.17;;;11.35;52.67
26436;BME280;15351;52.408;16.826;2023-02-18T11:50:15;100256.08;;;11.31;53.32
26436;BME280;15351;52.408;16.826;2023-02-18T11:52:49;100258.09;;;11.32;53.66
26436;BME280;15351;52.408;16.826;2023-02-18T11:55:34;100252.77;;;11.17;53.77
26436;BME280;15351;52.408;16.826;2023-02-18T11:58:05;100252.34;;;11.02;54.39
26436;BME280;15351;52.408;16.826;2023-02-18T12:00:46;100244.40;;;10.89;54.72
26436;BME280;15351;52.408;16.826;2023-02-18T12:06:33;100236.43;;;10.73;56.30
26436;BME280;15351;52.408;16.826;2023-02-18T12:09:28;100232.09;;;10.65;56.67
26436;BME280;15351;52.408;16.826;2023-02-18T12:12:13;100231.45;;;10.57;57.50
26436;BME280;15351;52.408;16.826;2023-02-18T12:15:07;100227.59;;;10.55;58.18
26436;BME280;15351;52.408;16.826;2023-02-18T12:18:03;100225.30;;;10.44;58.48
26436;BME280;15351;52.408;16.826;2023-02-18T12:21:20;100218.48;;;10.17;58.99
26436;BME280;15351;52.408;16.826;2023-02-18T12:24:14;100221.45;;;10.03;60.17
26436;BME280;15351;52.408;16.826;2023-02-18T12:33:51;100223.98;;;9.50;63.30
26436;BME280;15351;52.408;16.826;2023-02-18T12:37:05;100219.33;;;9.38;64.50
26436;BME280;15351;52.408;16.826;2023-02-18T12:46:32;100211.31;;;9.17;67.02
26436;BME280;15351;52.408;16.826;2023-02-18T13:01:44;100201.80;;;8.70;70.10
26436;BME280;15351;52.408;16.826;2023-02-18T13:07:36;100189.59;;;8.43;71.00
26436;BME280;15351;52.408;16.826;2023-02-18T13:10:19;100184.64;;;8.46;72.01
26436;BME280;15351;52.408;16.826;2023-02-18T13:13:25;100179.87;;;8.47;72.24
26436;BME280;15351;52.408;16.826;2023-02-18T13:16:00;100173.82;;;8.47;72.52
26436;BME280;15351;52.408;16.826;2023-02-18T13:18:46;100170.05;;;8.53;72.76
26436;BME280;15351;52.408;16.826;2023-02-18T13:21:17;100172.98;;;8.58;73.09
26436;BME280;15351;52.408;16.826;2023-02-18T13:23:55;100174.88;;;8.58;73.20
26436;BME280;15351;52.408;16.826;2023-02-18T13:26:28;100172.80;;;8.56;73.17
26436;BME280;15351;52.408;16.826;2023-02-18T13:32:19;100166.15;;;8.51;73.76
26436;BME280;15351;52.408;16.826;2023-02-18T13:34:59;100165.45;;;8.51;73.98
26436;BME280;15351;52.408;16.826;2023-02-18T13:41:01;100166.00;;;8.56;73.91
26436;BME280;15351;52.408;16.826;2023-02-18T13:43:39;100167.28;;;8.55;73.92
26436;BME280;15351;52.408;16.826;2023-02-18T13:47:03;100166.85;;;8.54;74.48
26436;BME280;15351;52.408;16.826;2023-02-18T13:49:37;100168.83;;;8.62;75.02
26436;BME280;15351;52.408;16.826;2023-02-18T13:52:17;100174.93;;;8.69;75.02
26436;BME280;15351;52.408;16.826;2023-02-18T13:54:48;100170.39;;;8.73;74.83
26436;BME280;15351;52.408;16.826;2023-02-18T13:57:24;100159.03;;;8.72;75.03
26436;BME280;15351;52.408;16.826;2023-02-18T14:00:02;100161.29;;;8.74;75.30
26436;BME280;15351;52.408;16.826;2023-02-18T14:02:36;100158.22;;;8.78;75.14
26436;BME280;15351;52.408;16.826;2023-02-18T14:05:41;100168.23;;;8.75;74.87
26436;BME280;15351;52.408;16.826;2023-02-18T14:08:34;100171.95;;;8.77;74.83
26436;BME280;15351;52.408;16.826;2023-02-18T14:14:33;100167.43;;;8.72;75.09
26436;BME280;15351;52.408;16.826;2023-02-18T14:17:13;100162.86;;;8.73;74.97
26436;BME280;15351;52.408;16.826;2023-02-18T14:22:52;100153.33;;;8.69;74.96
26436;BME280;15351;52.408;16.826;2023-02-18T14:28:34;100148.42;;;8.66;74.89
26436;BME280;15351;52.408;16.826;2023-02-18T14:31:42;100139.73;;;8.65;74.81
26436;BME280;15351;52.408;16.826;2023-02-18T14:37:12;100125.19;;;8.70;75.42
26436;BME280;15351;52.408;16.826;2023-02-18T14:40:38;100114.59;;;8.78;75.38
26436;BME280;15351;52.408;16.826;2023-02-18T14:49:42;100096.98;;;8.63;75.09
26436;BME280;15351;52.408;16.826;2023-02-18T14:52:44;100089.22;;;8.60;74.89
26436;BME280;15351;52.408;16.826;2023-02-18T14:55:37;100084.18;;;8.61;74.92
26436;BME280;15351;52.408;16.826;2023-02-18T14:58:35;100084.08;;;8.60;74.77
26436;BME280;15351;52.408;16.826;2023-02-18T15:01:22;100077.48;;;8.58;75.03
26436;BME280;15351;52.408;16.826;2023-02-18T15:03:52;100073.73;;;8.57;74.95
26436;BME280;15351;52.408;16.826;2023-02-18T15:06:40;100076.13;;;8.59;75.01
26436;BME280;15351;52.408;16.826;2023-02-18T15:12:25;100074.17;;;8.55;74.74
26436;BME280;15351;52.408;16.826;2023-02-18T15:15:01;100079.91;;;8.50;75.03
26436;BME280;15351;52.408;16.826;2023-02-18T15:17:28;100084.13;;;8.46;75.21
26436;BME280;15351;52.408;16.826;2023-02-18T15:23:26;100081.79;;;8.43;75.35
26436;BME280;15351;52.408;16.826;2023-02-18T15:26:22;100084.95;;;8.43;75.48
26436;BME280;15351;52.408;16.826;2023-02-18T15:29:10;100085.39;;;8.40;75.56
26436;BME280;15351;52.408;16.826;2023-02-18T15:31:40;100086.17;;;8.37;75.51
26436;BME280;15351;52.408;16.826;2023-02-18T15:34:33;100091.11;;;8.35;75.54
26436;BME280;15351;52.408;16.826;2023-02-18T15:37:36;100094.38;;;8.30;75.58
26436;BME280;15351;52.408;16.826;2023-02-18T15:40:13;100076.28;;;8.25;75.92
26436;BME280;15351;52.408;16.826;2023-02-18T15:42:41;100078.63;;;8.28;75.85
26436;BME280;15351;52.408;16.826;2023-02-18T15:45:35;100064.34;;;8.26;75.80
26436;BME280;15351;52.408;16.826;2023-02-18T15:48:05;100063.85;;;8.14;75.57
26436;BME280;15351;52.408;16.826;2023-02-18T15:50:44;100057.75;;;8.03;75.95
26436;BME280;15351;52.408;16.826;2023-02-18T15:53:37;100050.05;;;7.99;76.10